Rio Pardo de Minas, Brazil
Current Conditions -  °F | °C
As of 11:00 AM on Sunday 23 Nov 2014 (Local Time) from SBMK Reporting Station
Scattered Clouds Scattered Clouds  
Wind Chill: 79°   Ceiling: Unl
Heat Index: 81°   Visibility: 6mi
Dew Point: 64°   Wind: 5mph
Humidity: 61%   Direction: 300°WNW
Pressure: 30.03"   Gusts: NA
Location:  15.62°S, 42.55°W
Report Text: SBMK 231300Z 30004KT 9999 SCT030 26/18 Q1017
Loading
Personal Weather Stations






























Interactive Weather Map New forecast layout! Learn more

10-Day Weather Forecast

Advertisements
Track Severe Weather on mobile